createdAt,value
2017-10-03T00:01:58.858Z,12.00
2017-10-03T00:04:25.214Z,12.00
2017-10-03T00:06:52.172Z,12.00
2017-10-03T00:09:18.355Z,12.00
2017-10-03T00:11:44.573Z,12.00
2017-10-03T00:14:10.813Z,12.00
2017-10-03T00:16:37.042Z,12.00
2017-10-03T00:19:03.180Z,12.10
2017-10-03T00:21:29.356Z,12.10
2017-10-03T00:23:55.484Z,12.10
2017-10-03T00:26:21.879Z,12.10
2017-10-03T00:28:48.793Z,12.10
2017-10-03T00:31:14.948Z,12.10
2017-10-03T00:33:41.877Z,12.10
2017-10-03T00:36:08.844Z,12.10
2017-10-03T00:38:35.103Z,12.10
2017-10-03T00:41:01.304Z,12.10
2017-10-03T00:43:27.530Z,12.10
2017-10-03T00:45:54.558Z,12.10
2017-10-03T00:48:21.444Z,12.10
2017-10-03T00:50:47.724Z,12.00
2017-10-03T00:53:14.033Z,12.00
2017-10-03T00:55:40.469Z,12.00
2017-10-03T00:58:06.739Z,12.00
2017-10-03T01:00:32.953Z,12.00
2017-10-03T01:02:59.951Z,12.00
2017-10-03T01:05:26.288Z,12.00
2017-10-03T01:07:52.446Z,12.00
2017-10-03T01:10:19.303Z,11.80
2017-10-03T01:12:45.547Z,11.80
2017-10-03T01:15:11.714Z,11.80
2017-10-03T01:17:37.877Z,11.70
2017-10-03T01:20:04.814Z,11.50
2017-10-03T01:22:31.718Z,11.50
2017-10-03T01:24:57.968Z,11.50
2017-10-03T01:27:24.111Z,11.40
2017-10-03T01:29:50.928Z,11.50
2017-10-03T01:32:17.119Z,11.50
2017-10-03T01:34:43.276Z,11.60
2017-10-03T01:37:09.589Z,11.60
2017-10-03T01:39:35.799Z,11.60
2017-10-03T01:42:02.159Z,11.70
2017-10-03T01:44:28.370Z,11.70
2017-10-03T01:46:54.488Z,11.70
2017-10-03T01:49:20.915Z,11.80
2017-10-03T01:51:47.075Z,11.80
2017-10-03T01:54:13.284Z,11.70
2017-10-03T01:56:39.515Z,11.70
2017-10-03T01:59:05.642Z,11.70
2017-10-03T02:01:31.945Z,11.70
2017-10-03T02:03:58.093Z,11.70
2017-10-03T02:06:24.510Z,11.60
2017-10-03T02:08:50.779Z,11.50
2017-10-03T02:11:17.635Z,11.50
2017-10-03T02:13:44.651Z,11.50
2017-10-03T02:16:10.835Z,11.50
2017-10-03T02:18:36.986Z,11.60
2017-10-03T02:21:03.942Z,11.60
2017-10-03T02:23:30.078Z,11.70
2017-10-03T02:25:56.183Z,11.60
2017-10-03T02:28:22.304Z,11.70
2017-10-03T02:30:48.570Z,11.70
2017-10-03T02:33:15.482Z,11.70
2017-10-03T02:35:41.633Z,11.70
2017-10-03T02:38:08.642Z,11.60
2017-10-03T02:40:34.748Z,11.60
2017-10-03T02:43:00.999Z,11.50
2017-10-03T02:45:27.260Z,11.50
2017-10-03T02:47:54.092Z,11.60
2017-10-03T02:50:20.209Z,11.60
2017-10-03T02:52:46.446Z,11.60
2017-10-03T02:55:14.039Z,11.60
2017-10-03T02:57:40.253Z,11.60
2017-10-03T03:00:07.180Z,11.60
2017-10-03T03:02:33.377Z,11.60
2017-10-03T03:04:59.556Z,11.60
2017-10-03T03:07:25.737Z,11.60
2017-10-03T03:09:51.885Z,11.60
2017-10-03T03:12:18.728Z,11.60
2017-10-03T03:14:45.656Z,11.60
2017-10-03T03:17:11.951Z,11.60
2017-10-03T03:19:38.192Z,11.60
2017-10-03T03:22:04.326Z,11.60
2017-10-03T03:24:30.413Z,11.60
2017-10-03T03:26:56.784Z,11.60
2017-10-03T03:29:22.923Z,11.60
2017-10-03T03:31:49.056Z,11.60
2017-10-03T03:34:15.254Z,11.50
2017-10-03T03:36:41.330Z,11.50
2017-10-03T03:39:07.539Z,11.50
2017-10-03T03:41:34.639Z,11.50
2017-10-03T03:44:00.739Z,11.50
2017-10-03T03:46:26.833Z,11.50
2017-10-03T03:48:53.779Z,11.50
2017-10-03T03:51:20.657Z,11.40
2017-10-03T03:53:46.808Z,11.40
2017-10-03T03:56:13.154Z,11.40
2017-10-03T03:58:40.030Z,11.40
2017-10-03T04:01:06.837Z,11.40
2017-10-03T04:03:32.998Z,11.40
2017-10-03T04:05:59.192Z,11.40
2017-10-03T04:08:26.049Z,11.40
2017-10-03T04:10:53.033Z,11.30
2017-10-03T04:13:19.247Z,11.30
2017-10-03T04:15:45.389Z,11.30
2017-10-03T04:18:11.564Z,11.30
2017-10-03T04:20:37.749Z,11.30
2017-10-03T04:23:03.945Z,11.30
2017-10-03T04:25:30.899Z,11.20
2017-10-03T04:27:57.156Z,11.20
2017-10-03T04:30:23.256Z,11.20
2017-10-03T04:32:49.382Z,11.20
2017-10-03T04:35:15.560Z,11.20
2017-10-03T04:37:41.657Z,11.20
2017-10-03T04:40:07.812Z,11.20
2017-10-03T04:42:33.901Z,11.20
2017-10-03T04:45:00.049Z,11.20
2017-10-03T04:47:27.014Z,11.20
2017-10-03T04:49:53.162Z,11.10
2017-10-03T04:52:19.362Z,11.10
2017-10-03T04:54:46.246Z,11.20
2017-10-03T04:57:12.314Z,11.20
2017-10-03T04:59:38.623Z,11.20
2017-10-03T05:02:04.847Z,11.20
2017-10-03T05:04:31.190Z,11.20
2017-10-03T05:06:57.351Z,11.20
2017-10-03T05:09:24.254Z,11.20
2017-10-03T05:11:50.479Z,11.20
2017-10-03T05:14:16.615Z,11.10
2017-10-03T05:16:43.469Z,11.10
2017-10-03T05:19:09.604Z,11.10
2017-10-03T05:21:36.474Z,11.10
2017-10-03T05:24:02.608Z,11.10
2017-10-03T05:26:28.779Z,11.00
2017-10-03T05:28:54.890Z,11.00
2017-10-03T05:31:21.041Z,11.00
2017-10-03T05:33:48.130Z,10.80
2017-10-03T05:36:14.382Z,10.80
2017-10-03T05:38:40.740Z,10.80
2017-10-03T05:41:06.949Z,10.90
2017-10-03T05:43:33.300Z,10.90
2017-10-03T05:45:59.611Z,10.90
2017-10-03T05:48:26.430Z,10.90
2017-10-03T05:50:52.604Z,10.90
2017-10-03T05:53:19.620Z,10.80
2017-10-03T05:55:45.931Z,10.80
2017-10-03T05:58:12.083Z,10.80
2017-10-03T06:00:38.305Z,10.80
2017-10-03T06:03:04.436Z,10.80
2017-10-03T06:05:31.394Z,10.80
2017-10-03T06:07:57.669Z,10.80
2017-10-03T06:10:23.822Z,10.90
2017-10-03T06:12:50.238Z,10.90
2017-10-03T06:15:16.685Z,10.90
2017-10-03T06:17:42.909Z,10.90
2017-10-03T06:20:09.228Z,10.90
2017-10-03T06:22:35.386Z,10.90
2017-10-03T06:25:01.686Z,10.90
2017-10-03T06:27:27.802Z,10.90
2017-10-03T06:29:54.035Z,10.80
2017-10-03T06:32:20.250Z,10.80
2017-10-03T06:34:46.516Z,10.80
2017-10-03T06:37:13.789Z,10.80
2017-10-03T06:39:40.798Z,10.80
2017-10-03T06:42:07.242Z,10.80
2017-10-03T06:44:33.471Z,10.80
2017-10-03T06:46:59.637Z,10.70
2017-10-03T06:49:25.858Z,10.70
2017-10-03T06:51:52.233Z,10.70
2017-10-03T06:54:18.466Z,10.80
2017-10-03T06:56:44.619Z,10.80
2017-10-03T06:59:10.858Z,10.80
2017-10-03T07:01:37.043Z,10.80
2017-10-03T07:04:03.288Z,10.80
2017-10-03T07:06:30.381Z,10.90
2017-10-03T07:08:56.575Z,10.90
2017-10-03T07:11:22.841Z,10.90
2017-10-03T07:13:49.318Z,10.90
2017-10-03T07:16:17.185Z,10.90
2017-10-03T07:18:43.511Z,10.90
2017-10-03T07:21:10.540Z,10.90
2017-10-03T07:23:36.895Z,10.90
2017-10-03T07:26:03.343Z,11.00
2017-10-03T07:28:30.377Z,11.00
2017-10-03T07:30:57.510Z,11.00
2017-10-03T07:33:23.886Z,11.00
2017-10-03T07:35:50.464Z,11.00
2017-10-03T07:38:16.677Z,11.00
2017-10-03T07:40:43.805Z,11.00
2017-10-03T07:43:10.366Z,11.00
2017-10-03T07:45:36.697Z,11.00
2017-10-03T07:48:03.085Z,11.10
2017-10-03T07:50:29.596Z,11.10
2017-10-03T07:52:56.001Z,11.10
2017-10-03T07:55:22.334Z,11.10
2017-10-03T07:57:48.769Z,11.00
2017-10-03T08:00:15.017Z,11.00
2017-10-03T08:02:41.624Z,11.00
2017-10-03T08:05:07.901Z,11.00
2017-10-03T08:07:34.961Z,11.00
2017-10-03T08:10:01.417Z,11.00
2017-10-03T08:12:28.499Z,11.00
2017-10-03T08:14:54.732Z,11.00
2017-10-03T08:17:21.777Z,11.00
2017-10-03T08:19:48.105Z,11.00
2017-10-03T08:22:14.357Z,11.00
2017-10-03T08:24:41.291Z,11.00
2017-10-03T08:27:08.390Z,11.00
2017-10-03T08:29:34.631Z,11.10
2017-10-03T08:32:01.388Z,11.10
2017-10-03T08:34:27.590Z,11.20
2017-10-03T08:36:53.752Z,11.20
2017-10-03T08:39:19.949Z,11.30
2017-10-03T08:41:46.114Z,11.40
2017-10-03T08:44:13.145Z,11.40
2017-10-03T08:46:40.013Z,11.40
2017-10-03T08:49:06.242Z,11.40
2017-10-03T08:51:33.132Z,11.40
2017-10-03T08:53:59.283Z,11.40
2017-10-03T08:56:25.555Z,11.40
2017-10-03T08:58:51.840Z,11.50
2017-10-03T09:01:19.019Z,11.70
2017-10-03T09:03:45.444Z,11.60
2017-10-03T09:06:11.775Z,11.80
2017-10-03T09:08:37.982Z,11.90
2017-10-03T09:11:04.146Z,12.00
2017-10-03T09:13:30.323Z,12.00
2017-10-03T09:15:56.593Z,12.10
2017-10-03T09:18:22.748Z,12.10
2017-10-03T09:20:48.935Z,12.10
2017-10-03T09:23:15.873Z,12.20
2017-10-03T09:25:43.174Z,12.20
2017-10-03T09:28:09.400Z,12.20
2017-10-03T09:30:35.571Z,12.20
2017-10-03T09:33:02.471Z,12.20
2017-10-03T09:35:28.775Z,12.10
2017-10-03T09:37:55.003Z,12.30
2017-10-03T09:40:21.396Z,12.30
2017-10-03T09:42:48.267Z,12.40
2017-10-03T09:45:14.420Z,12.30
2017-10-03T09:47:40.589Z,12.30
2017-10-03T09:50:07.624Z,12.60
2017-10-03T09:52:33.778Z,12.60
2017-10-03T09:55:00.203Z,12.70
2017-10-03T09:57:27.241Z,12.80
2017-10-03T09:59:54.274Z,12.70
2017-10-03T10:02:20.565Z,12.70
2017-10-03T10:04:46.818Z,12.80
2017-10-03T10:07:13.033Z,13.00
2017-10-03T10:09:39.232Z,13.00
2017-10-03T10:12:05.362Z,13.00
2017-10-03T10:14:31.705Z,13.00
2017-10-03T10:16:57.923Z,13.00
2017-10-03T10:19:24.123Z,13.00
2017-10-03T10:21:50.555Z,13.00
2017-10-03T10:24:16.824Z,13.10
2017-10-03T10:26:43.040Z,13.20
2017-10-03T10:29:09.194Z,13.40
2017-10-03T10:31:35.380Z,13.40
2017-10-03T10:34:01.588Z,13.40
2017-10-03T10:36:27.888Z,13.40
2017-10-03T10:38:54.173Z,13.50
2017-10-03T10:41:20.617Z,13.40
2017-10-03T10:43:47.110Z,13.50
2017-10-03T10:46:13.431Z,13.60
2017-10-03T10:48:40.351Z,13.60
2017-10-03T10:51:07.363Z,13.60
2017-10-03T10:53:33.737Z,13.50
2017-10-03T10:56:00.769Z,13.40
2017-10-03T10:58:27.010Z,13.40
2017-10-03T11:00:54.048Z,13.50
2017-10-03T11:03:21.412Z,13.40
2017-10-03T11:05:48.564Z,13.30
2017-10-03T11:08:15.562Z,13.30
2017-10-03T11:10:41.753Z,13.20
2017-10-03T11:13:07.923Z,13.30
2017-10-03T11:15:34.164Z,13.40
2017-10-03T11:18:00.683Z,13.30
2017-10-03T11:20:26.861Z,13.30
2017-10-03T11:23:05.982Z,13.30
2017-10-03T11:25:32.925Z,13.30
2017-10-03T11:27:59.124Z,13.30
2017-10-03T11:30:25.337Z,13.40
2017-10-03T11:32:51.481Z,13.40
2017-10-03T11:35:17.725Z,13.40
2017-10-03T11:37:44.706Z,13.40
2017-10-03T11:40:10.783Z,13.40
2017-10-03T11:42:36.984Z,13.40
2017-10-03T11:45:03.202Z,13.50
2017-10-03T11:47:29.348Z,13.60
2017-10-03T11:49:55.535Z,13.60
2017-10-03T11:52:21.850Z,13.70
2017-10-03T11:54:48.025Z,13.90
2017-10-03T11:57:14.387Z,14.00
2017-10-03T11:59:41.389Z,14.20
2017-10-03T12:02:07.535Z,14.20
2017-10-03T12:04:34.605Z,14.00
2017-10-03T12:07:01.603Z,14.00
2017-10-03T12:09:27.762Z,14.00
2017-10-03T12:11:54.755Z,14.00
2017-10-03T12:14:20.957Z,14.00
2017-10-03T12:16:48.708Z,14.10
2017-10-03T12:19:14.951Z,14.10
2017-10-03T12:21:41.065Z,14.10
2017-10-03T12:24:07.965Z,14.10
2017-10-03T12:26:34.246Z,14.10
2017-10-03T12:29:00.375Z,14.10
2017-10-03T12:31:26.557Z,14.10
2017-10-03T12:33:52.867Z,14.20
2017-10-03T12:36:19.168Z,14.20
2017-10-03T12:38:45.403Z,14.10
2017-10-03T12:41:11.542Z,14.00
2017-10-03T12:43:37.881Z,14.00
2017-10-03T12:46:04.334Z,14.00
2017-10-03T12:48:31.152Z,14.00
2017-10-03T12:50:57.322Z,14.00
2017-10-03T12:53:24.458Z,14.10
2017-10-03T12:55:51.612Z,14.00
2017-10-03T12:58:18.662Z,14.00
2017-10-03T13:00:45.601Z,14.00
2017-10-03T13:03:12.463Z,13.90
2017-10-03T13:05:39.509Z,13.90
2017-10-03T13:08:05.853Z,13.90
2017-10-03T13:10:31.972Z,13.90
2017-10-03T13:12:58.191Z,13.90
2017-10-03T13:15:26.068Z,14.10
2017-10-03T13:17:52.344Z,14.10
2017-10-03T13:20:18.713Z,14.00
2017-10-03T13:22:45.629Z,13.90
2017-10-03T13:25:12.145Z,13.90
2017-10-03T13:27:38.408Z,14.00
2017-10-03T13:30:04.716Z,14.00
2017-10-03T13:32:31.194Z,14.10
2017-10-03T13:34:58.284Z,14.10
2017-10-03T13:37:24.519Z,13.80
2017-10-03T13:39:50.783Z,13.40
2017-10-03T13:42:17.640Z,13.40
2017-10-03T13:44:43.834Z,13.40
2017-10-03T13:47:10.081Z,13.30
2017-10-03T13:49:36.320Z,13.20
2017-10-03T13:52:02.557Z,13.20
2017-10-03T13:54:28.783Z,13.30
2017-10-03T13:56:54.911Z,13.40
2017-10-03T13:59:21.178Z,13.50
2017-10-03T14:01:47.369Z,13.50
2017-10-03T14:04:13.616Z,13.40
2017-10-03T14:06:39.820Z,13.10
2017-10-03T14:09:06.121Z,13.00
2017-10-03T14:11:33.166Z,13.20
2017-10-03T14:13:59.596Z,13.20
2017-10-03T14:16:26.521Z,13.30
2017-10-03T14:18:52.839Z,13.20
2017-10-03T14:21:19.075Z,13.30
2017-10-03T14:23:45.297Z,13.40
2017-10-03T14:26:11.615Z,13.40
2017-10-03T14:28:37.944Z,13.40
2017-10-03T14:31:04.224Z,13.40
2017-10-03T14:33:30.428Z,13.40
2017-10-03T14:35:57.380Z,13.50
2017-10-03T14:38:24.237Z,13.60
2017-10-03T14:40:50.555Z,13.60
2017-10-03T14:43:17.546Z,13.80
2017-10-03T14:45:43.764Z,13.80
2017-10-03T14:48:10.052Z,13.80
2017-10-03T14:50:37.027Z,14.00
2017-10-03T14:53:03.166Z,13.90
2017-10-03T14:55:29.332Z,13.80
2017-10-03T14:57:55.530Z,13.50
2017-10-03T15:00:21.714Z,13.60
2017-10-03T15:02:47.962Z,13.50
2017-10-03T15:05:14.389Z,13.50
2017-10-03T15:07:40.744Z,13.40
2017-10-03T15:10:06.985Z,13.50
2017-10-03T15:12:33.196Z,13.50
2017-10-03T15:14:59.379Z,13.50
2017-10-03T15:17:25.499Z,13.50
2017-10-03T15:19:52.502Z,13.50
2017-10-03T15:22:18.824Z,13.50
2017-10-03T15:24:45.076Z,13.50
2017-10-03T15:27:11.364Z,13.50
2017-10-03T15:29:37.651Z,13.40
2017-10-03T15:32:04.563Z,13.50
2017-10-03T15:34:30.787Z,13.50
2017-10-03T15:36:57.121Z,13.50
2017-10-03T15:39:23.303Z,13.40
2017-10-03T15:41:49.426Z,13.40
2017-10-03T15:44:15.681Z,13.30
2017-10-03T15:46:41.763Z,13.20
2017-10-03T15:49:08.652Z,13.00
2017-10-03T15:51:35.431Z,13.00
2017-10-03T15:54:02.350Z,12.80
2017-10-03T15:56:28.495Z,12.80
2017-10-03T15:58:54.662Z,12.80
2017-10-03T16:01:20.846Z,12.80
2017-10-03T16:03:47.128Z,12.80
2017-10-03T16:06:13.440Z,12.70
2017-10-03T16:08:39.574Z,12.70
2017-10-03T16:11:05.742Z,12.70
2017-10-03T16:13:31.921Z,12.70
2017-10-03T16:15:58.133Z,12.50
2017-10-03T16:18:24.608Z,12.50
2017-10-03T16:20:50.862Z,12.40
2017-10-03T16:23:17.091Z,12.50
2017-10-03T16:25:43.248Z,12.40
2017-10-03T16:28:09.550Z,12.50
2017-10-03T16:30:36.456Z,12.10
2017-10-03T16:33:02.679Z,12.10
2017-10-03T16:35:28.845Z,11.90
2017-10-03T16:37:55.161Z,11.70
2017-10-03T16:40:21.375Z,11.60
2017-10-03T16:42:47.656Z,11.50
2017-10-03T16:45:14.007Z,11.60
2017-10-03T16:47:40.140Z,11.60
2017-10-03T16:50:06.547Z,11.70
2017-10-03T16:52:32.703Z,11.60
2017-10-03T16:54:58.959Z,11.60
2017-10-03T16:57:25.154Z,11.60
2017-10-03T16:59:51.717Z,11.60
2017-10-03T17:02:19.503Z,11.60
2017-10-03T17:04:46.412Z,11.60
2017-10-03T17:07:12.943Z,11.60
2017-10-03T17:09:39.050Z,11.60
2017-10-03T17:12:05.319Z,11.60
2017-10-03T17:14:31.519Z,11.60
2017-10-03T17:16:57.908Z,11.50
2017-10-03T17:19:24.119Z,11.50
2017-10-03T17:21:51.111Z,11.50
2017-10-03T17:24:17.293Z,11.50
2017-10-03T17:26:44.284Z,11.40
2017-10-03T17:29:10.850Z,11.40
2017-10-03T17:31:37.178Z,11.40
2017-10-03T17:34:03.420Z,11.30
2017-10-03T17:36:29.543Z,11.30
2017-10-03T17:38:56.442Z,11.30
2017-10-03T17:41:22.638Z,11.30
2017-10-03T17:43:48.760Z,11.20
2017-10-03T17:46:14.866Z,11.20
2017-10-03T17:48:41.861Z,11.10
2017-10-03T17:51:07.985Z,11.10
2017-10-03T17:53:34.365Z,11.00
2017-10-03T17:56:01.700Z,10.90
2017-10-03T17:58:27.916Z,10.80
2017-10-03T18:00:54.231Z,10.80
2017-10-03T18:03:20.606Z,10.80
2017-10-03T18:05:46.898Z,10.80
2017-10-03T18:08:13.464Z,10.80
2017-10-03T18:10:39.600Z,10.80
2017-10-03T18:13:06.841Z,10.50
2017-10-03T18:15:33.234Z,10.50
2017-10-03T18:18:00.099Z,10.40
2017-10-03T18:20:27.775Z,10.30
2017-10-03T18:22:53.953Z,10.30
2017-10-03T18:25:20.119Z,10.30
2017-10-03T18:27:46.545Z,10.20
2017-10-03T18:30:12.725Z,10.20
2017-10-03T18:32:39.081Z,10.20
2017-10-03T18:35:05.325Z,10.20
2017-10-03T18:37:31.537Z,10.10
2017-10-03T18:39:57.790Z,10.10
2017-10-03T18:42:24.901Z,10.10
2017-10-03T18:44:51.962Z,10.10
2017-10-03T18:47:18.304Z,10.20
2017-10-03T18:49:45.633Z,10.20
2017-10-03T18:52:12.145Z,10.20
2017-10-03T18:54:38.713Z,10.20
2017-10-03T18:57:04.886Z,10.20
2017-10-03T18:59:31.884Z,10.10
2017-10-03T19:01:58.168Z,10.10
2017-10-03T19:04:24.643Z,10.00
2017-10-03T19:06:50.958Z,10.00
2017-10-03T19:09:17.085Z,9.90
2017-10-03T19:11:43.420Z,9.90
2017-10-03T19:14:09.544Z,9.90
2017-10-03T19:16:35.736Z,9.80
2017-10-03T19:19:02.493Z,9.60
2017-10-03T19:21:28.799Z,9.70
2017-10-03T19:23:55.481Z,9.60
2017-10-03T19:26:21.739Z,9.50
2017-10-03T19:28:47.875Z,9.50
2017-10-03T19:31:14.884Z,9.50
2017-10-03T19:33:41.128Z,9.40
2017-10-03T19:36:07.429Z,9.40
2017-10-03T19:38:33.538Z,9.40
2017-10-03T19:40:59.825Z,9.40
2017-10-03T19:43:26.789Z,9.30
2017-10-03T19:45:52.976Z,9.30
2017-10-03T19:48:19.556Z,9.30
2017-10-03T19:50:46.003Z,9.30
2017-10-03T19:53:12.246Z,9.40
2017-10-03T19:55:38.509Z,9.30
2017-10-03T19:58:05.513Z,9.30
2017-10-03T20:00:31.780Z,9.30
2017-10-03T20:02:58.731Z,9.30
2017-10-03T20:05:26.358Z,9.30
2017-10-03T20:07:52.607Z,9.30
2017-10-03T20:10:18.816Z,9.30
2017-10-03T20:12:44.967Z,9.30
2017-10-03T20:15:11.122Z,9.20
2017-10-03T20:17:37.323Z,9.20
2017-10-03T20:20:04.258Z,9.10
2017-10-03T20:22:31.163Z,9.10
2017-10-03T20:24:57.273Z,9.10
2017-10-03T20:27:23.441Z,9.10
2017-10-03T20:29:49.586Z,9.10
2017-10-03T20:32:16.651Z,9.00
2017-10-03T20:34:42.796Z,9.00
2017-10-03T20:37:09.147Z,9.00
2017-10-03T20:39:35.457Z,9.00
2017-10-03T20:42:01.714Z,9.00
2017-10-03T20:44:28.776Z,8.90
2017-10-03T20:46:54.876Z,8.90
2017-10-03T20:49:21.235Z,8.90
2017-10-03T20:51:48.409Z,8.90
2017-10-03T20:54:14.723Z,8.90
2017-10-03T20:56:41.585Z,8.90
2017-10-03T20:59:07.686Z,8.90
2017-10-03T21:01:34.637Z,8.90
2017-10-03T21:04:01.654Z,8.90
2017-10-03T21:06:28.888Z,8.90
2017-10-03T21:08:55.247Z,8.90
2017-10-03T21:11:21.664Z,8.90
2017-10-03T21:13:47.883Z,8.80
2017-10-03T21:16:14.329Z,8.80
2017-10-03T21:18:40.718Z,8.80
2017-10-03T21:21:06.828Z,8.80
2017-10-03T21:23:33.099Z,8.80
2017-10-03T21:25:59.572Z,8.90
2017-10-03T21:28:26.444Z,8.90
2017-10-03T21:30:52.689Z,8.80
2017-10-03T21:33:19.181Z,8.90
2017-10-03T21:35:45.467Z,8.80
2017-10-03T21:38:11.597Z,8.90
2017-10-03T21:40:37.726Z,8.90
2017-10-03T21:43:09.923Z,8.90
2017-10-03T21:45:37.153Z,8.80
2017-10-03T21:48:04.187Z,8.80
2017-10-03T21:50:31.232Z,8.80
2017-10-03T21:52:57.460Z,8.80
2017-10-03T21:55:23.568Z,8.90
2017-10-03T21:57:49.668Z,8.80
2017-10-03T22:00:15.825Z,8.80
2017-10-03T22:02:42.077Z,8.80
2017-10-03T22:05:09.071Z,8.80
2017-10-03T22:07:35.243Z,8.80
2017-10-03T22:10:02.513Z,8.80
2017-10-03T22:12:29.551Z,8.70
2017-10-03T22:14:56.529Z,8.60
2017-10-03T22:17:22.786Z,8.60
2017-10-03T22:19:49.019Z,8.60
2017-10-03T22:22:15.362Z,8.60
2017-10-03T22:24:41.488Z,8.60
2017-10-03T22:27:07.864Z,8.70
2017-10-03T22:29:34.334Z,8.70
2017-10-03T22:32:00.530Z,8.70
2017-10-03T22:34:26.733Z,8.70
2017-10-03T22:36:53.688Z,8.70
2017-10-03T22:39:19.870Z,8.70
2017-10-03T22:41:46.020Z,8.70
2017-10-03T22:44:13.058Z,8.80
2017-10-03T22:46:40.074Z,8.80
2017-10-03T22:49:10.373Z,8.70
2017-10-03T22:51:42.890Z,8.70
2017-10-03T22:54:09.010Z,8.70
2017-10-03T22:56:35.149Z,8.70
2017-10-03T22:59:02.109Z,8.60
2017-10-03T23:01:29.234Z,8.60
2017-10-03T23:03:55.404Z,8.60
2017-10-03T23:06:21.702Z,8.60
2017-10-03T23:08:48.572Z,8.60
2017-10-03T23:11:14.694Z,8.60
2017-10-03T23:13:40.903Z,8.60
2017-10-03T23:16:07.901Z,8.60
2017-10-03T23:18:34.225Z,8.60
2017-10-03T23:21:00.409Z,8.70
2017-10-03T23:23:26.742Z,8.60
2017-10-03T23:25:52.883Z,8.60
2017-10-03T23:28:19.133Z,8.60
2017-10-03T23:30:45.296Z,8.60
2017-10-03T23:33:12.205Z,8.60
2017-10-03T23:35:38.426Z,8.60
2017-10-03T23:38:04.622Z,8.60
2017-10-03T23:40:30.747Z,8.60
2017-10-03T23:42:57.541Z,8.60
2017-10-03T23:45:23.835Z,8.50
2017-10-03T23:47:50.089Z,8.50
2017-10-03T23:50:16.318Z,8.50
2017-10-03T23:52:43.186Z,8.40
2017-10-03T23:55:10.058Z,8.40
2017-10-03T23:57:36.346Z,8.40
